Time;durP1;ratioP1;P1;durP2;ratioP2;P2;SDS_P1;SDS_P2;PMS_P1;PMS_P2;Temp;Humidity;BMP_temperature;BMP_pressure;BME280_temperature;BME280_humidity;BME280_pressure;Samples;Min_cycle;Max_cycle;Signal;HPM_P1;HPM_P2
2023/03/21 00:00:20;;;;;;;;;;;;;;;10.67;51.25;100634.30;108221;1285;21955;-66
2023/03/21 00:02:45;;;;;;;;;;;;;;;10.57;51.38;100634.38;108209;1285;22735;-68
2023/03/21 00:05:12;;;;;;;;;;;;;;;10.51;51.64;100633.91;108127;1286;22422;-67
2023/03/21 00:07:37;;;;;;;;;;;;;;;10.46;51.82;100632.36;108150;1286;21961;-67
2023/03/21 00:10:03;;;;;;;;;;;;;;;10.43;51.82;100633.60;107379;1286;1002857;-67
2023/03/21 00:12:31;;;;;;;;;;;;;;;10.38;51.71;100626.78;108139;1286;21957;-67
2023/03/21 00:15:03;;;;;;;;;;;;;;;10.35;51.76;100626.28;108121;1285;23709;-67
2023/03/21 00:17:31;;;;;;;;;;;;;;;10.32;51.89;100627.54;108168;1286;21958;-68
2023/03/21 00:19:58;;;;;;;;;;;;;;;10.30;51.89;100627.89;108147;1286;21975;-67
2023/03/21 00:22:24;;;;;;;;;;;;;;;10.28;52.00;100628.95;108132;1286;21958;-67
2023/03/21 00:24:51;;;;;;;;;;;;;;;10.26;52.21;100631.59;108139;1286;21973;-66
2023/03/21 00:27:18;;;;;;;;;;;;;;;10.22;52.32;100631.10;108203;1286;21966;-67
2023/03/21 00:29:44;;;;;;;;;;;;;;;10.17;52.38;100631.14;108191;1286;24303;-69
2023/03/21 00:32:10;;;;;;;;;;;;;;;10.12;52.50;100632.23;108124;1285;21975;-69
2023/03/21 00:34:37;;;;;;;;;;;;;;;10.09;52.59;100632.06;108199;1285;22439;-69
2023/03/21 00:37:03;;;;;;;;;;;;;;;10.07;52.62;100630.33;108248;1285;21973;-69
2023/03/21 00:39:28;;;;;;;;;;;;;;;10.10;52.94;100625.75;108236;1285;21962;-69
2023/03/21 00:41:54;;;;;;;;;;;;;;;10.13;52.69;100624.50;105953;1285;1006837;-69
2023/03/21 00:44:22;;;;;;;;;;;;;;;10.12;52.64;100622.23;108200;1286;21976;-69
2023/03/21 00:46:48;;;;;;;;;;;;;;;10.12;52.54;100618.90;108151;1286;21967;-69
2023/03/21 00:49:15;;;;;;;;;;;;;;;10.14;52.50;100617.84;106670;1286;1003319;-69
2023/03/21 00:51:42;;;;;;;;;;;;;;;10.16;52.39;100620.95;108263;1285;22434;-69
2023/03/21 00:54:08;;;;;;;;;;;;;;;10.16;52.23;100615.17;108216;1285;21970;-67
2023/03/21 00:56:36;;;;;;;;;;;;;;;10.13;52.27;100612.58;107539;1285;1002740;-66
2023/03/21 00:59:02;;;;;;;;;;;;;;;10.10;52.22;100604.35;108337;1285;21972;-66
2023/03/21 01:01:30;;;;;;;;;;;;;;;10.09;52.18;100601.56;108199;1286;22740;-66
2023/03/21 01:04:04;;;;;;;;;;;;;;;10.08;52.29;100602.27;108186;1286;21968;-67
2023/03/21 01:06:30;;;;;;;;;;;;;;;10.04;52.15;100594.23;108266;1286;21970;-67
2023/03/21 01:08:56;;;;;;;;;;;;;;;10.01;52.19;100598.11;108245;1286;21972;-66
2023/03/21 01:11:22;;;;;;;;;;;;;;;10.00;52.33;100599.16;108295;1285;21958;-69
2023/03/21 01:13:48;;;;;;;;;;;;;;;9.96;52.22;100597.95;108319;1285;21974;-67
2023/03/21 01:16:14;;;;;;;;;;;;;;;9.90;52.31;100596.42;108304;1285;22011;-66
2023/03/21 01:18:40;;;;;;;;;;;;;;;9.87;52.26;100595.92;108212;1285;21964;-67
2023/03/21 01:21:07;;;;;;;;;;;;;;;9.83;52.23;100597.15;107585;1285;1003228;-67
2023/03/21 01:23:33;;;;;;;;;;;;;;;9.79;52.45;100600.69;108232;1286;23501;-68
2023/03/21 01:25:58;;;;;;;;;;;;;;;9.75;52.47;100601.23;107442;1286;1002800;-67
2023/03/21 01:28:25;;;;;;;;;;;;;;;9.69;52.59;100598.63;107499;1286;1002355;-67
2023/03/21 01:30:50;;;;;;;;;;;;;;;9.65;52.58;100597.77;108227;1285;21967;-67
2023/03/21 01:46:04;;;;;;;17.60;12.40;;;;;;;5.41;83.64;100601.81;107461;1288;548564;-68
2023/03/21 01:48:30;;;;;;;22.80;12.70;;;;;;;8.45;62.02;100582.31;107682;1292;22000;-67
2023/03/21 01:50:56;;;;;;;19.10;12.00;;;;;;;8.90;58.94;100579.48;107453;1283;21990;-67
2023/03/21 01:53:27;;;;;;;22.10;12.30;;;;;;;9.10;57.82;100582.92;107322;1295;22205;-68
2023/03/21 01:55:53;;;;;;;22.10;13.80;;;;;;;9.21;57.44;100582.55;107822;1293;22003;-68
2023/03/21 01:58:18;;;;;;;22.60;14.20;;;;;;;9.29;57.51;100584.80;107678;1291;173435;-69
2023/03/21 02:00:45;;;;;;;17.80;11.90;;;;;;;9.34;57.46;100583.71;107831;1279;22004;-69
2023/03/21 02:03:15;;;;;;;17.00;11.20;;;;;;;9.38;57.38;100589.65;107835;1290;22005;-67
2023/03/21 02:05:51;;;;;;;18.80;11.80;;;;;;;9.37;57.24;100590.02;107859;1290;21993;-69
2023/03/21 02:08:17;;;;;;;23.00;13.40;;;;;;;9.34;56.90;100588.98;107845;1290;21985;-69
2023/03/21 02:10:44;;;;;;;22.40;15.00;;;;;;;9.32;56.98;100589.85;107737;1291;21995;-68
2023/03/21 02:13:17;;;;;;;21.70;13.80;;;;;;;9.31;57.04;100588.83;107732;1290;21997;-67
2023/03/21 02:15:49;;;;;;;19.80;12.60;;;;;;;9.30;56.92;100588.64;107948;1290;22004;-67
2023/03/21 02:18:26;;;;;;;14.20;10.00;;;;;;;9.29;56.86;100585.66;107829;1290;21989;-68
2023/03/21 02:21:21;;;;;;;16.90;9.50;;;;;;;9.26;56.40;100583.24;107886;1290;21989;-66
2023/03/21 02:24:11;;;;;;;14.50;9.90;;;;;;;9.21;56.33;100581.50;107749;1290;21989;-66
2023/03/21 02:26:48;;;;;;;16.20;11.00;;;;;;;9.14;56.43;100579.95;107886;1290;21991;-69
2023/03/21 02:29:35;;;;;;;20.40;11.70;;;;;;;9.12;56.47;100581.36;107916;1290;21994;-68
2023/03/21 02:32:04;;;;;;;16.20;11.10;;;;;;;9.14;56.46;100583.09;107906;1290;21998;-69
2023/03/21 02:34:34;;;;;;;17.30;11.90;;;;;;;9.18;56.31;100582.92;107126;1283;1002431;-68
2023/03/21 02:37:25;;;;;;;17.70;11.80;;;;;;;9.18;56.31;100581.86;107841;1290;21999;-67
2023/03/21 02:40:22;;;;;;;17.90;11.10;;;;;;;9.19;56.08;100580.45;107982;1290;21990;-69
2023/03/21 02:42:57;;;;;;;15.10;10.70;;;;;;;9.19;55.97;100582.38;107817;1290;21996;-68
2023/03/21 02:45:44;;;;;;;15.60;10.90;;;;;;;9.18;55.80;100583.09;107889;1290;22003;-68
2023/03/21 02:48:11;;;;;;;16.30;10.20;;;;;;;9.19;55.55;100581.69;107823;1290;22007;-68
2023/03/21 02:50:41;;;;;;;15.10;10.50;;;;;;;9.21;55.58;100576.08;107878;1290;21958;-67
2023/03/21 02:53:09;;;;;;;15.70;10.50;;;;;;;9.24;55.59;100570.98;107866;1290;21993;-69
2023/03/21 02:55:35;;;;;;;16.10;11.40;;;;;;;9.25;55.48;100569.41;107791;1290;21995;-67
2023/03/21 02:58:01;;;;;;;14.70;10.50;;;;;;;9.26;55.49;100565.02;107947;1283;21993;-67
2023/03/21 03:00:29;;;;;;;17.20;10.50;;;;;;;9.28;55.26;100566.77;107903;1290;22000;-68
2023/03/21 03:02:55;;;;;;;16.30;10.70;;;;;;;9.30;54.95;100569.73;107894;1290;22575;-69
2023/03/21 03:05:25;;;;;;;16.50;10.50;;;;;;;9.29;54.69;100568.68;107943;1290;22021;-68
2023/03/21 03:08:10;;;;;;;17.70;12.40;;;;;;;9.28;54.50;100567.98;107846;1290;24324;-69
2023/03/21 03:10:44;;;;;;;33.30;20.00;;;;;;;9.27;54.34;100570.10;107780;1290;21998;-69
2023/03/21 03:13:38;;;;;;;23.10;14.60;;;;;;;9.24;54.16;100568.70;107786;1290;21956;-67
2023/03/21 03:16:17;;;;;;;16.20;11.10;;;;;;;9.19;53.94;100567.50;107745;1290;22019;-67
2023/03/21 03:18:54;;;;;;;16.20;11.80;;;;;;;9.13;53.79;100558.41;107823;1290;21990;-70
2023/03/21 03:21:23;;;;;;;16.90;11.30;;;;;;;9.08;53.91;100557.91;107918;1290;22002;-70
2023/03/21 03:23:54;;;;;;;17.50;12.00;;;;;;;9.05;53.73;100560.89;107888;1290;22043;-67
2023/03/21 03:26:44;;;;;;;17.20;11.00;;;;;;;9.01;53.47;100554.08;107868;1290;21994;-67
2023/03/21 03:29:17;;;;;;;15.80;10.90;;;;;;;9.00;53.44;100557.92;107903;1290;21999;-67
2023/03/21 03:31:50;;;;;;;12.90;9.50;;;;;;;9.00;53.53;100555.30;107878;1290;22042;-67
2023/03/21 03:34:19;;;;;;;12.20;8.60;;;;;;;8.98;53.27;100552.16;107884;1290;21997;-67
2023/03/21 03:36:50;;;;;;;13.50;9.80;;;;;;;8.96;53.07;100551.13;107911;1283;21995;-69
2023/03/21 03:39:16;;;;;;;14.70;10.00;;;;;;;8.92;53.13;100557.07;107892;1290;21987;-67
2023/03/21 03:41:50;;;;;;;14.20;10.30;;;;;;;8.87;52.91;100559.02;107799;1290;21994;-67
2023/03/21 03:44:16;;;;;;;17.50;10.70;;;;;;;8.79;52.76;100562.02;107887;1287;21982;-70
2023/03/21 03:47:00;;;;;;;18.70;11.50;;;;;;;8.70;52.58;100558.17;106991;1290;1002563;-67
2023/03/21 03:49:28;;;;;;;16.30;11.30;;;;;;;8.62;52.59;100564.66;107120;1290;1003130;-67
2023/03/21 03:52:03;;;;;;;17.10;10.90;;;;;;;8.54;52.60;100567.11;107827;1290;21990;-67
2023/03/21 03:54:36;;;;;;;16.00;11.10;;;;;;;8.46;52.63;100565.16;107833;1290;23059;-66
2023/03/21 03:57:04;;;;;;;13.50;9.80;;;;;;;8.40;52.60;100566.55;107827;1290;22033;-66
2023/03/21 03:59:29;;;;;;;18.90;10.90;;;;;;;8.38;52.68;100563.08;107764;1286;22081;-67
2023/03/21 04:01:55;;;;;;;17.80;11.20;;;;;;;8.38;52.71;100562.20;107800;1290;21989;-69
2023/03/21 04:04:21;;;;;;;16.80;9.90;;;;;;;8.39;52.83;100557.99;107886;1277;21989;-67
2023/03/21 04:06:50;;;;;;;17.60;10.30;;;;;;;8.39;52.81;100557.30;107822;1290;21992;-66
2023/03/21 04:09:17;;;;;;;15.10;10.60;;;;;;;8.39;52.98;100556.77;107945;1289;21993;-69
2023/03/21 04:11:45;;;;;;;16.50;10.80;;;;;;;8.41;53.06;100560.61;107889;1286;21991;-67
2023/03/21 04:14:11;;;;;;;15.20;10.30;;;;;;;8.43;53.16;100567.09;107810;1290;22030;-68
2023/03/21 04:16:39;;;;;;;14.20;9.60;;;;;;;8.43;53.06;100569.01;107843;1285;21989;-70
2023/03/21 04:19:05;;;;;;;13.50;10.10;;;;;;;8.46;53.24;100567.61;107074;1290;1002335;-67
2023/03/21 04:21:30;;;;;;;21.10;13.30;;;;;;;8.52;53.42;100567.83;107813;1290;22030;-70
2023/03/21 04:23:59;;;;;;;18.30;12.60;;;;;;;8.57;53.47;100567.81;107926;1290;22462;-71
2023/03/21 04:26:31;;;;;;;16.60;12.70;;;;;;;8.59;53.36;100569.21;107843;1290;21990;-70
2023/03/21 04:28:59;;;;;;;17.30;12.80;;;;;;;8.65;53.44;100573.75;107854;1290;21987;-68
2023/03/21 04:31:27;;;;;;;16.60;11.40;;;;;;;8.70;53.47;100572.17;107998;1290;21996;-69
2023/03/21 04:33:54;;;;;;;14.10;10.70;;;;;;;8.76;53.57;100575.84;107947;1287;22458;-70
2023/03/21 04:36:32;;;;;;;14.20;10.40;;;;;;;8.84;53.55;100572.66;107923;1290;21990;-67
2023/03/21 04:39:00;;;;;;;13.30;9.70;;;;;;;8.91;53.68;100571.42;107851;1290;22005;-67
2023/03/21 04:41:27;;;;;;;13.60;9.00;;;;;;;9.01;53.80;100571.95;107915;1290;21994;-67
2023/03/21 04:43:54;;;;;;;13.40;9.40;;;;;;;9.10;53.78;100572.77;107995;1290;22032;-68
2023/03/21 04:46:20;;;;;;;12.20;9.60;;;;;;;9.19;54.15;100573.10;107895;1290;21997;-67
2023/03/21 04:48:46;;;;;;;16.20;9.90;;;;;;;9.30;54.47;100567.45;107869;1286;21994;-68
2023/03/21 04:51:12;;;;;;;17.90;10.10;;;;;;;9.40;54.47;100565.84;107790;1290;21991;-69
2023/03/21 04:53:43;;;;;;;15.40;10.90;;;;;;;9.49;54.39;100565.27;107897;1290;22005;-69
2023/03/21 04:56:11;;;;;;;16.60;9.90;;;;;;;9.61;54.61;100562.06;107802;1291;21988;-66
2023/03/21 04:58:39;;;;;;;16.80;9.40;;;;;;;9.76;54.98;100557.59;107646;1291;22001;-66
2023/03/21 05:01:06;;;;;;;16.80;9.80;;;;;;;9.93;55.10;100560.99;107639;1286;21991;-65
2023/03/21 05:03:38;;;;;;;18.80;10.30;;;;;;;10.09;55.23;100560.52;107720;1291;22003;-65
2023/03/21 05:06:07;;;;;;;12.50;9.20;;;;;;;10.24;55.41;100561.11;107810;1291;21987;-68
2023/03/21 05:08:36;;;;;;;20.20;9.70;;;;;;;10.42;55.68;100563.98;107651;1289;22178;-68
2023/03/21 05:11:02;;;;;;;13.40;8.70;;;;;;;10.61;55.62;100565.39;107672;1291;22271;-68
2023/03/21 05:13:29;;;;;;;15.40;9.10;;;;;;;10.79;55.55;100568.20;107791;1288;21992;-66
2023/03/21 05:15:55;;;;;;;18.40;10.20;;;;;;;10.93;55.61;100566.12;107720;1290;23062;-68
2023/03/21 05:18:23;;;;;;;13.10;9.60;;;;;;;11.04;55.45;100561.61;107837;1290;21992;-68
2023/03/21 05:20:54;;;;;;;11.90;9.30;;;;;;;11.05;55.33;100565.46;107889;1290;21994;-66
2023/03/21 05:23:21;;;;;;;13.30;10.40;;;;;;;11.03;55.35;100573.22;107886;1290;22458;-65
2023/03/21 05:25:47;;;;;;;14.20;10.30;;;;;;;11.00;55.45;100576.58;107853;1279;22007;-68
2023/03/21 05:28:17;;;;;;;13.50;9.80;;;;;;;11.02;55.80;100575.52;107888;1290;21991;-65
2023/03/21 05:30:46;;;;;;;14.80;9.30;;;;;;;11.07;55.95;100579.85;107853;1290;21994;-65
2023/03/21 05:33:16;;;;;;;12.10;9.20;;;;;;;11.13;56.01;100583.63;107936;1289;21992;-66
2023/03/21 05:35:42;;;;;;;13.50;8.80;;;;;;;11.22;56.04;100581.80;108078;1286;22012;-66
2023/03/21 05:38:09;;;;;;;11.10;8.80;;;;;;;11.34;56.38;100578.31;107906;1290;22507;-68
2023/03/21 05:40:36;;;;;;;20.70;10.00;;;;;;;11.51;56.48;100577.20;107869;1290;21990;-66
2023/03/21 05:43:01;;;;;;;14.30;9.80;;;;;;;11.67;56.77;100571.89;107904;1288;21990;-66
2023/03/21 05:45:31;;;;;;;16.10;10.70;;;;;;;11.80;56.73;100570.65;107789;1290;21990;-66
2023/03/21 05:48:00;;;;;;;17.90;12.80;;;;;;;11.84;57.41;100569.73;107914;1290;24376;-66
2023/03/21 05:50:25;;;;;;;20.50;13.40;;;;;;;11.83;58.35;100570.44;107885;1290;23844;-66
2023/03/21 05:52:51;;;;;;;18.40;13.30;;;;;;;11.85;58.63;100567.60;107864;1290;21990;-68
2023/03/21 05:55:18;;;;;;;19.30;13.00;;;;;;;11.92;58.85;100566.98;107940;1276;21994;-68
2023/03/21 05:57:44;;;;;;;21.30;13.40;;;;;;;12.00;59.79;100566.87;107913;1290;21994;-69
2023/03/21 06:00:11;;;;;;;20.10;13.10;;;;;;;12.08;59.91;100570.10;107854;1290;21984;-70
2023/03/21 06:02:38;;;;;;;20.30;13.30;;;;;;;12.12;63.25;100571.45;107975;1290;22021;-69
2023/03/21 06:05:05;;;;;;;23.80;14.10;;;;;;;12.19;62.20;100571.86;107814;1278;21989;-69
2023/03/21 06:07:31;;;;;;;22.70;13.40;;;;;;;12.32;62.28;100573.41;107863;1276;21999;-69
2023/03/21 06:09:57;;;;;;;26.20;14.80;;;;;;;12.49;61.83;100575.07;107903;1290;21956;-69
2023/03/21 06:12:23;;;;;;;22.70;14.20;;;;;;;12.67;61.91;100573.73;107852;1290;22004;-69
2023/03/21 06:14:50;;;;;;;23.90;15.00;;;;;;;12.82;62.14;100572.92;107790;1290;21994;-69
2023/03/21 06:17:15;;;;;;;23.10;14.80;;;;;;;12.92;62.69;100575.89;107806;1276;22004;-69
2023/03/21 06:19:41;;;;;;;21.60;14.30;;;;;;;13.12;61.96;100573.59;107772;1290;21995;-69
2023/03/21 06:22:09;;;;;;;19.20;13.20;;;;;;;13.27;62.13;100574.70;107763;1290;22022;-69
2023/03/21 06:24:36;;;;;;;22.10;13.40;;;;;;;13.40;62.27;100576.39;107734;1290;22002;-69
2023/03/21 06:27:02;;;;;;;20.70;14.30;;;;;;;13.47;61.36;100576.61;107930;1290;21988;-69
2023/03/21 06:29:28;;;;;;;19.80;13.20;;;;;;;13.51;60.73;100574.58;107785;1290;22000;-69
2023/03/21 06:31:54;;;;;;;20.40;13.10;;;;;;;13.56;60.62;100575.73;107849;1290;22025;-70
2023/03/21 06:34:20;;;;;;;18.10;13.50;;;;;;;13.59;60.28;100573.90;107867;1290;21991;-70
2023/03/21 06:36:50;;;;;;;18.90;12.70;;;;;;;13.64;60.83;100568.67;107854;1290;22053;-69
2023/03/21 06:39:17;;;;;;;22.80;13.60;;;;;;;13.65;61.29;100564.94;107945;1290;21998;-69
2023/03/21 06:41:43;;;;;;;25.70;15.30;;;;;;;13.67;60.96;100566.12;107857;1290;21988;-69
2023/03/21 06:44:13;;;;;;;21.30;14.60;;;;;;;13.68;61.50;100569.98;107627;1290;21988;-68
2023/03/21 06:46:39;;;;;;;20.00;14.10;;;;;;;13.79;60.74;100566.75;107885;1276;22026;-69
2023/03/21 06:49:05;;;;;;;18.40;13.50;;;;;;;13.89;60.81;100566.52;107822;1290;22003;-69
2023/03/21 06:51:34;;;;;;;18.60;13.20;;;;;;;14.02;60.90;100566.21;107878;1289;21996;-69
2023/03/21 06:54:00;;;;;;;22.20;14.30;;;;;;;14.15;60.88;100563.61;107829;1290;21992;-68
2023/03/21 06:56:26;;;;;;;21.80;14.30;;;;;;;14.28;60.99;100560.66;107895;1290;21990;-70
2023/03/21 06:58:52;;;;;;;23.60;14.80;;;;;;;14.34;61.38;100558.75;108064;1286;22030;-68
2023/03/21 07:01:18;;;;;;;23.60;14.80;;;;;;;14.48;60.56;100558.06;107885;1289;21995;-68
2023/03/21 07:03:45;;;;;;;19.50;13.40;;;;;;;14.60;60.33;100561.61;107798;1290;21987;-68
2023/03/21 07:06:13;;;;;;;21.40;14.70;;;;;;;14.69;60.41;100563.70;107768;1290;22002;-69
2023/03/21 07:08:40;;;;;;;21.40;15.10;;;;;;;14.80;60.14;100569.08;108002;1290;22648;-69
2023/03/21 07:11:08;;;;;;;23.30;16.00;;;;;;;14.92;60.04;100570.33;107935;1290;21997;-70
2023/03/21 07:13:34;;;;;;;24.00;17.40;;;;;;;15.00;59.83;100570.48;107856;1290;22179;-70
2023/03/21 07:16:00;;;;;;;24.70;16.50;;;;;;;15.00;60.37;100572.08;107829;1290;22004;-69
2023/03/21 07:18:26;;;;;;;24.40;16.30;;;;;;;15.18;59.95;100570.86;107914;1290;22445;-70
2023/03/21 07:20:52;;;;;;;21.60;16.40;;;;;;;15.32;59.60;100566.23;107846;1286;22177;-68
2023/03/21 07:23:20;;;;;;;23.60;16.70;;;;;;;15.43;59.27;100569.44;107772;1289;21990;-70
2023/03/21 07:25:49;;;;;;;22.30;16.50;;;;;;;15.54;59.44;100567.20;107824;1289;23068;-69
2023/03/21 07:28:15;;;;;;;23.30;16.60;;;;;;;15.69;59.91;100563.89;107815;1290;22030;-70
2023/03/21 07:30:42;;;;;;;26.30;16.30;;;;;;;15.85;59.32;100564.13;107838;1290;21991;-68
2023/03/21 07:33:08;;;;;;;28.50;20.00;;;;;;;15.93;58.77;100563.88;107846;1290;23048;-68
2023/03/21 07:35:36;;;;;;;35.30;20.90;;;;;;;16.03;58.79;100560.91;107968;1282;21982;-69
2023/03/21 07:38:03;;;;;;;25.60;15.70;;;;;;;16.14;58.55;100564.10;108045;1289;21999;-68
2023/03/21 07:40:30;;;;;;;22.40;15.00;;;;;;;16.23;58.32;100567.02;107950;1289;22001;-68
2023/03/21 07:42:56;;;;;;;21.80;15.30;;;;;;;16.31;58.25;100563.21;107786;1289;21995;-68
2023/03/21 07:45:25;;;;;;;25.20;17.40;;;;;;;16.41;58.19;100559.31;107783;1289;22050;-68
2023/03/21 07:47:52;;;;;;;28.20;18.60;;;;;;;16.53;58.09;100559.64;107793;1289;22000;-67
2023/03/21 07:50:18;;;;;;;30.10;20.80;;;;;;;16.66;58.09;100561.66;107890;1289;21992;-69
2023/03/21 07:52:45;;;;;;;23.40;16.20;;;;;;;16.81;57.74;100563.30;107815;1289;21995;-68
2023/03/21 07:55:11;;;;;;;23.80;16.10;;;;;;;16.91;57.33;100557.42;108144;1289;22003;-68
2023/03/21 07:57:36;;;;;;;24.60;15.40;;;;;;;17.00;57.27;100555.02;107752;1289;21996;-68
2023/03/21 08:00:04;;;;;;;21.60;15.80;;;;;;;17.02;56.47;100558.49;107776;1289;21999;-68
2023/03/21 08:02:30;;;;;;;21.80;15.00;;;;;;;17.06;56.62;100554.98;107846;1289;21990;-68
2023/03/21 08:04:56;;;;;;;24.80;17.30;;;;;;;17.21;57.23;100551.06;107818;1289;21989;-69
2023/03/21 08:07:26;;;;;;;18.30;14.10;;;;;;;17.41;57.19;100548.38;107918;1289;22001;-67
2023/03/21 08:09:52;;;;;;;18.00;13.30;;;;;;;17.63;56.75;100550.73;107828;1289;22452;-68
2023/03/21 08:12:24;;;;;;;17.90;13.50;;;;;;;17.79;56.24;100543.52;107880;1289;22000;-69
2023/03/21 08:14:50;;;;;;;43.00;29.20;;;;;;;17.91;55.39;100544.64;107854;1289;22029;-67
2023/03/21 08:17:15;;;;;;;43.80;30.30;;;;;;;18.00;55.42;100544.84;107849;1289;21998;-68
2023/03/21 08:19:46;;;;;;;19.30;14.90;;;;;;;18.14;55.61;100540.04;107873;1289;21992;-67
2023/03/21 08:22:12;;;;;;;16.50;12.70;;;;;;;18.22;54.79;100540.56;107859;1289;21992;-67
2023/03/21 08:24:38;;;;;;;18.10;13.70;;;;;;;18.35;55.05;100544.33;107882;1289;21969;-68
2023/03/21 08:27:08;;;;;;;19.90;13.00;;;;;;;18.43;54.07;100545.94;107879;1289;21984;-68
2023/03/21 08:29:39;;;;;;;17.30;13.00;;;;;;;18.45;53.40;100545.34;107851;1289;21993;-68
2023/03/21 08:32:05;;;;;;;18.70;13.40;;;;;;;18.39;52.61;100544.67;107754;1289;22456;-67
2023/03/21 08:34:31;;;;;;;19.10;14.40;;;;;;;18.39;52.89;100548.41;107845;1289;21986;-67
2023/03/21 08:36:57;;;;;;;17.90;12.80;;;;;;;18.39;53.06;100549.81;107852;1289;21992;-67
2023/03/21 08:39:23;;;;;;;20.90;13.20;;;;;;;18.34;52.52;100551.29;107912;1285;22004;-67
2023/03/21 08:41:49;;;;;;;16.60;12.90;;;;;;;18.35;52.75;100550.34;107877;1289;21993;-67
2023/03/21 08:44:15;;;;;;;18.90;13.80;;;;;;;18.51;52.92;100553.24;107924;1285;21990;-68
2023/03/21 08:46:41;;;;;;;18.30;14.40;;;;;;;18.68;52.67;100553.04;107874;1289;21996;-69
2023/03/21 08:49:07;;;;;;;18.30;12.70;;;;;;;18.77;51.94;100551.75;107665;1288;22173;-69
2023/03/21 08:51:36;;;;;;;20.10;14.40;;;;;;;18.81;51.22;100549.26;107813;1289;22032;-69
2023/03/21 08:54:02;;;;;;;19.30;13.90;;;;;;;18.93;51.76;100543.78;108016;1289;23655;-69
2023/03/21 08:56:28;;;;;;;17.10;13.00;;;;;;;19.04;51.45;100544.23;107833;1285;21996;-68
2023/03/21 08:58:55;;;;;;;17.50;13.00;;;;;;;19.13;51.34;100539.87;107862;1289;22271;-67
2023/03/21 09:01:22;;;;;;;16.70;12.30;;;;;;;19.21;50.99;100538.48;107837;1289;21985;-68
2023/03/21 09:03:48;;;;;;;15.60;12.00;;;;;;;19.30;50.81;100538.39;107795;1289;22028;-67
2023/03/21 09:06:16;;;;;;;16.40;13.30;;;;;;;19.31;50.27;100537.62;107898;1289;21987;-68
2023/03/21 09:08:42;;;;;;;18.00;13.10;;;;;;;19.33;50.52;100532.55;107862;1289;23390;-68
2023/03/21 09:11:09;;;;;;;17.70;13.90;;;;;;;19.44;51.00;100533.83;107784;1289;22027;-67
2023/03/21 09:13:36;;;;;;;18.30;13.50;;;;;;;19.40;49.05;100528.71;107857;1289;22114;-67
2023/03/21 09:16:03;;;;;;;16.40;14.10;;;;;;;19.44;50.18;100524.20;107800;1289;23625;-67
2023/03/21 09:18:46;;;;;;;21.70;14.20;;;;;;;19.51;50.09;100520.34;107882;1289;21990;-66
2023/03/21 09:21:13;;;;;;;17.70;13.30;;;;;;;19.67;50.06;100520.14;107759;1289;21990;-68
2023/03/21 09:23:41;;;;;;;17.10;13.10;;;;;;;19.81;49.87;100519.44;107913;1289;21986;-67
2023/03/21 09:26:08;;;;;;;19.10;13.40;;;;;;;19.95;49.69;100519.00;107909;1289;21984;-66
2023/03/21 09:28:37;;;;;;;38.90;24.90;;;;;;;20.13;50.00;100514.69;107801;1287;21998;-67
2023/03/21 09:31:04;;;;;;;18.20;13.40;;;;;;;20.30;49.90;100514.23;108035;1289;22032;-67
2023/03/21 09:33:31;;;;;;;18.50;12.10;;;;;;;20.42;49.96;100513.82;107902;1289;21992;-67
2023/03/21 09:35:59;;;;;;;19.60;14.00;;;;;;;20.48;48.64;100507.63;107872;1289;21995;-67
2023/03/21 09:38:29;;;;;;;17.00;12.40;;;;;;;20.55;48.97;100508.13;107851;1289;21992;-67
2023/03/21 09:41:17;;;;;;;17.70;13.00;;;;;;;20.54;47.35;100509.96;107894;1289;21995;-67
2023/03/21 09:44:02;;;;;;;16.70;13.40;;;;;;;20.52;47.02;100508.30;107850;1289;21991;-67
2023/03/21 09:46:37;;;;;;;16.20;13.10;;;;;;;20.41;46.74;100511.38;107895;1289;21996;-68
2023/03/21 09:49:20;;;;;;;19.90;12.60;;;;;;;20.33;46.89;100508.71;107903;1289;21990;-67
2023/03/21 09:51:49;;;;;;;17.90;13.20;;;;;;;20.32;46.95;100509.48;107905;1289;21990;-68
2023/03/21 09:54:28;;;;;;;22.10;13.40;;;;;;;20.29;46.68;100509.97;107872;1289;21992;-67
2023/03/21 09:56:56;;;;;;;18.00;13.10;;;;;;;20.23;46.45;100507.65;107848;1289;22011;-68
2023/03/21 09:59:32;;;;;;;19.80;13.00;;;;;;;20.26;46.89;100508.75;107878;1289;21998;-67
2023/03/21 10:01:59;;;;;;;16.60;12.50;;;;;;;20.19;46.59;100507.45;107833;1289;22004;-67
2023/03/21 10:04:26;;;;;;;14.10;11.60;;;;;;;20.15;46.12;100507.70;107826;1286;21999;-68
2023/03/21 10:06:58;;;;;;;13.80;11.60;;;;;;;20.16;46.61;100504.98;107824;1289;22004;-68
2023/03/21 10:09:24;;;;;;;18.60;12.70;;;;;;;20.16;46.62;100501.90;107901;1289;21997;-68
2023/03/21 10:11:53;;;;;;;12.50;10.60;;;;;;;20.19;46.68;100504.64;107932;1285;22250;-69
2023/03/21 10:14:32;;;;;;;14.00;11.10;;;;;;;20.09;46.00;100504.42;107995;1289;22034;-67
2023/03/21 10:17:29;;;;;;;15.80;10.90;;;;;;;20.03;46.00;100505.27;107813;1286;22173;-67
2023/03/21 10:20:09;;;;;;;14.60;11.70;;;;;;;20.01;46.21;100502.30;107883;1286;21999;-68
2023/03/21 10:22:36;;;;;;;17.60;13.00;;;;;;;20.04;46.22;100500.56;107901;1289;21998;-69
2023/03/21 10:25:03;;;;;;;17.70;12.50;;;;;;;20.09;46.36;100497.84;107943;1289;22203;-67
2023/03/21 10:27:30;;;;;;;18.80;13.70;;;;;;;20.13;45.55;100495.49;108057;1289;22000;-68
2023/03/21 10:29:57;;;;;;;16.40;12.80;;;;;;;20.16;45.52;100493.19;107874;1289;21993;-68
2023/03/21 10:32:23;;;;;;;17.80;13.80;;;;;;;20.17;45.72;100486.71;107732;1289;23637;-67
2023/03/21 10:34:56;;;;;;;19.30;14.80;;;;;;;20.29;46.32;100481.65;107772;1289;22577;-67
2023/03/21 10:37:22;;;;;;;19.60;14.80;;;;;;;20.43;45.61;100481.70;107962;1289;22002;-68
2023/03/21 10:39:53;;;;;;;16.60;14.00;;;;;;;20.60;46.06;100476.15;107959;1289;21993;-68
2023/03/21 10:42:26;;;;;;;17.50;14.50;;;;;;;20.69;45.51;100471.41;107859;1289;21993;-68
2023/03/21 10:44:53;;;;;;;20.60;14.60;;;;;;;20.81;45.58;100466.90;107692;1289;21990;-68
2023/03/21 10:47:24;;;;;;;18.40;14.00;;;;;;;20.92;45.36;100465.58;107830;1289;22004;-68
2023/03/21 10:49:50;;;;;;;18.70;15.20;;;;;;;20.99;45.01;100464.87;107884;1289;23634;-67
2023/03/21 10:52:21;;;;;;;19.00;14.50;;;;;;;20.98;45.16;100464.55;107833;1289;21996;-69
2023/03/21 10:54:47;;;;;;;16.30;14.10;;;;;;;21.02;45.57;100465.02;107827;1289;22004;-66
2023/03/21 10:57:20;;;;;;;19.00;14.90;;;;;;;21.07;45.39;100466.56;107841;1289;22106;-69
2023/03/21 11:49:39;;;;;;;23.10;16.30;;;;;;;15.89;76.62;100471.27;107621;1288;548028;-67
2023/03/21 11:52:22;;;;;;;23.10;16.20;;;;;;;19.04;54.18;100451.91;107825;1293;22012;-68
2023/03/21 11:54:51;;;;;;;20.50;14.80;;;;;;;19.46;51.99;100448.89;107735;1294;22004;-68
2023/03/21 11:57:25;;;;;;;19.20;15.30;;;;;;;19.73;51.12;100450.61;107681;1294;21994;-69
2023/03/21 11:59:59;;;;;;;21.30;16.90;;;;;;;19.86;49.96;100445.71;107496;1295;21993;-69
2023/03/21 12:02:54;;;;;;;19.60;16.30;;;;;;;19.89;49.35;100443.04;107697;1292;163660;-68
2023/03/21 12:05:34;;;;;;;25.50;18.00;;;;;;;19.88;49.10;100440.98;107794;1292;21989;-68
2023/03/21 12:08:23;;;;;;;22.50;17.40;;;;;;;19.78;48.25;100436.27;107802;1292;21990;-66
2023/03/21 12:10:57;;;;;;;23.20;18.20;;;;;;;19.77;48.54;100439.38;107811;1290;23600;-69
2023/03/21 12:13:48;;;;;;;23.60;17.00;;;;;;;19.74;48.67;100437.01;107700;1292;23083;-66
2023/03/21 12:16:35;;;;;;;23.40;18.20;;;;;;;19.68;48.20;100438.23;107063;1292;1003197;-67
2023/03/21 12:19:25;;;;;;;20.80;17.20;;;;;;;19.64;48.24;100435.21;107728;1292;23360;-69
2023/03/21 12:21:55;;;;;;;22.60;18.30;;;;;;;19.50;47.68;100432.14;107953;1289;21997;-66
2023/03/21 12:24:23;;;;;;;26.50;18.30;;;;;;;19.39;47.96;100429.30;107997;1289;22018;-67
2023/03/21 12:26:54;;;;;;;25.10;17.40;;;;;;;19.32;48.11;100429.27;107938;1289;21989;-70